createdAt,value
2023-03-15T00:01:16.141Z,1.13
2023-03-15T00:03:44.258Z,1.50
2023-03-15T00:06:11.754Z,0.97
2023-03-15T00:08:38.816Z,0.63
2023-03-15T00:11:05.933Z,2.30
2023-03-15T00:13:33.368Z,0.60
2023-03-15T00:16:03.476Z,0.57
2023-03-15T00:18:30.623Z,0.50
2023-03-15T00:20:57.923Z,0.40
2023-03-15T00:23:24.818Z,0.40
2023-03-15T00:25:52.984Z,0.30
2023-03-15T00:28:19.800Z,0.20
2023-03-15T00:30:46.706Z,1.47
2023-03-15T00:33:15.798Z,0.33
2023-03-15T00:35:44.506Z,0.30
2023-03-15T00:38:11.919Z,0.40
2023-03-15T00:40:42.106Z,0.77
2023-03-15T00:43:08.973Z,0.50
2023-03-15T00:45:36.485Z,1.90
2023-03-15T00:48:03.398Z,3.77
2023-03-15T00:50:30.196Z,1.70
2023-03-15T00:52:57.060Z,1.27
2023-03-15T00:55:23.946Z,0.87
2023-03-15T00:57:50.897Z,0.83
2023-03-15T01:00:24.656Z,1.37
2023-03-15T01:02:53.248Z,1.30
2023-03-15T01:05:21.171Z,1.17
2023-03-15T01:07:48.228Z,2.20
2023-03-15T01:10:15.874Z,3.07
2023-03-15T01:12:42.779Z,2.07
2023-03-15T01:15:13.002Z,1.43
2023-03-15T01:17:40.046Z,2.00
2023-03-15T01:20:07.937Z,3.57
2023-03-15T01:22:35.789Z,3.13
2023-03-15T01:25:02.598Z,2.73
2023-03-15T01:27:29.471Z,1.93
2023-03-15T01:29:56.517Z,2.00
2023-03-15T01:32:24.079Z,1.60
2023-03-15T01:34:50.937Z,1.10
2023-03-15T01:37:17.787Z,2.07
2023-03-15T01:39:45.431Z,1.23
2023-03-15T01:42:12.439Z,0.73
2023-03-15T01:44:51.575Z,1.60
2023-03-15T01:47:18.791Z,1.07
2023-03-15T01:49:50.439Z,1.10
2023-03-15T01:52:24.820Z,3.07
2023-03-15T01:55:05.749Z,2.93
2023-03-15T01:57:36.296Z,2.33
2023-03-15T02:00:12.538Z,2.23
2023-03-15T02:03:18.721Z,1.67
2023-03-15T02:05:54.685Z,2.10
2023-03-15T02:08:35.245Z,1.40
2023-03-15T02:11:04.185Z,2.60
2023-03-15T02:13:33.310Z,2.10
2023-03-15T02:16:07.019Z,2.77
2023-03-15T02:18:42.970Z,3.10
2023-03-15T02:21:35.510Z,3.27
2023-03-15T02:24:43.668Z,2.97
2023-03-15T02:27:11.004Z,2.87
2023-03-15T02:29:38.017Z,2.67
2023-03-15T02:32:05.003Z,2.23
2023-03-15T02:34:32.172Z,2.80
2023-03-15T02:36:58.985Z,3.07
2023-03-15T02:39:27.415Z,2.03
2023-03-15T02:41:58.314Z,4.00
2023-03-15T02:44:37.138Z,2.87
2023-03-15T02:47:08.460Z,3.83
2023-03-15T02:49:42.856Z,2.83
2023-03-15T02:52:10.815Z,7.70
2023-03-15T02:54:43.213Z,3.77
2023-03-15T02:57:14.970Z,7.37
2023-03-15T02:59:42.935Z,3.33
2023-03-15T03:02:11.780Z,5.40
2023-03-15T03:04:39.502Z,5.10
2023-03-15T03:07:06.349Z,5.20
2023-03-15T03:09:40.482Z,5.20
2023-03-15T03:12:07.763Z,5.10
2023-03-15T03:14:34.572Z,8.47
2023-03-15T03:17:03.176Z,7.97
2023-03-15T03:19:30.030Z,7.03
2023-03-15T03:21:57.457Z,5.53
2023-03-15T03:24:25.834Z,9.03
2023-03-15T03:26:57.980Z,8.27
2023-03-15T03:29:27.328Z,5.83
2023-03-15T03:31:55.625Z,5.50
2023-03-15T03:34:22.877Z,6.13
2023-03-15T03:36:50.820Z,6.83
2023-03-15T03:39:26.240Z,4.83
2023-03-15T03:41:53.754Z,5.73
2023-03-15T03:44:20.755Z,7.37
2023-03-15T03:46:47.549Z,10.20
2023-03-15T03:49:14.854Z,8.07
2023-03-15T03:51:41.726Z,6.07
2023-03-15T03:54:08.530Z,8.30
2023-03-15T03:56:35.875Z,10.83
2023-03-15T03:59:02.699Z,9.00
2023-03-15T04:01:42.393Z,6.27
2023-03-15T04:04:14.178Z,9.63
2023-03-15T04:06:45.927Z,8.00
2023-03-15T04:09:14.736Z,8.67
2023-03-15T04:11:43.979Z,8.83
2023-03-15T04:14:12.132Z,10.50
2023-03-15T04:16:39.184Z,6.60
2023-03-15T04:19:09.164Z,9.23
2023-03-15T04:21:37.095Z,5.20
2023-03-15T04:24:17.532Z,8.53
2023-03-15T04:27:22.668Z,8.20
2023-03-15T04:29:52.288Z,11.30
2023-03-15T04:32:39.390Z,7.73
2023-03-15T04:35:20.631Z,10.53
2023-03-15T04:38:04.659Z,8.67
2023-03-15T04:40:47.104Z,16.73
2023-03-15T04:43:49.511Z,10.47
2023-03-15T04:46:41.142Z,14.13
2023-03-15T04:49:15.494Z,9.57
2023-03-15T04:51:57.327Z,7.07
2023-03-15T04:54:30.547Z,11.33
2023-03-15T04:57:11.714Z,9.20
2023-03-15T04:59:44.394Z,10.83
2023-03-15T05:02:25.620Z,8.43
2023-03-15T05:05:13.113Z,14.30
2023-03-15T05:07:48.826Z,10.37
2023-03-15T05:10:25.381Z,7.80
2023-03-15T05:13:06.843Z,9.53
2023-03-15T05:15:40.552Z,10.90
2023-03-15T05:18:21.996Z,7.70
2023-03-15T05:21:09.035Z,12.63
2023-03-15T05:23:43.190Z,8.03
2023-03-15T05:26:28.658Z,6.13
2023-03-15T05:29:14.695Z,11.43
2023-03-15T05:32:00.779Z,9.63
2023-03-15T05:34:39.920Z,9.03
2023-03-15T05:37:26.559Z,7.23
2023-03-15T05:40:09.855Z,10.43
2023-03-15T05:43:00.689Z,12.10
2023-03-15T05:45:44.765Z,13.47
2023-03-15T05:48:24.757Z,8.80
2023-03-15T05:51:13.113Z,8.70
2023-03-15T05:54:09.248Z,6.60
2023-03-15T05:56:38.989Z,7.40
2023-03-15T05:59:24.458Z,7.50
2023-03-15T06:02:10.249Z,6.83
2023-03-15T06:04:45.667Z,4.00
2023-03-15T06:07:16.865Z,8.03
2023-03-15T06:09:43.623Z,7.03
2023-03-15T06:12:10.788Z,8.60
2023-03-15T06:14:39.708Z,6.53
2023-03-15T06:17:08.404Z,8.53
2023-03-15T06:19:37.697Z,6.47
2023-03-15T06:22:04.774Z,7.83
2023-03-15T06:24:38.962Z,4.70
2023-03-15T06:27:05.860Z,8.70
2023-03-15T06:29:35.461Z,7.27
2023-03-15T06:32:03.853Z,4.80
2023-03-15T06:34:32.158Z,7.07
2023-03-15T06:36:59.060Z,6.10
2023-03-15T06:39:25.912Z,6.47
2023-03-15T06:41:58.375Z,6.07
2023-03-15T06:44:26.884Z,5.27
2023-03-15T06:46:57.722Z,11.37
2023-03-15T06:49:24.595Z,8.60
2023-03-15T06:51:51.522Z,5.63
2023-03-15T06:54:18.512Z,9.33
2023-03-15T06:56:45.347Z,6.37
2023-03-15T06:59:12.108Z,8.60
2023-03-15T07:01:39.004Z,7.83
2023-03-15T07:04:08.272Z,7.50
2023-03-15T07:06:35.823Z,5.87
2023-03-15T07:09:03.811Z,8.00
2023-03-15T07:11:30.550Z,4.80
2023-03-15T07:13:58.530Z,6.00
2023-03-15T07:16:25.843Z,8.30
2023-03-15T07:18:55.460Z,4.43
2023-03-15T07:21:22.417Z,6.23
2023-03-15T07:23:49.137Z,9.27
2023-03-15T07:26:15.939Z,8.97
2023-03-15T07:28:44.681Z,5.97
2023-03-15T07:31:12.195Z,6.27
2023-03-15T07:33:39.437Z,5.43
2023-03-15T07:36:07.729Z,8.87
2023-03-15T07:38:35.452Z,6.07
2023-03-15T07:41:05.060Z,6.40
2023-03-15T07:43:32.299Z,7.43
2023-03-15T07:46:14.593Z,10.00
2023-03-15T07:48:41.485Z,6.10
2023-03-15T07:51:08.282Z,6.23
2023-03-15T07:53:35.093Z,4.47
2023-03-15T07:56:02.004Z,7.53
2023-03-15T07:58:28.739Z,4.07
2023-03-15T08:00:56.709Z,8.30
2023-03-15T08:03:24.777Z,4.00
2023-03-15T08:05:51.731Z,6.93
2023-03-15T08:08:18.748Z,7.07
2023-03-15T08:10:45.948Z,5.83
2023-03-15T08:13:13.556Z,5.37
2023-03-15T08:15:41.345Z,6.20
2023-03-15T08:18:08.168Z,4.20
2023-03-15T08:20:34.980Z,6.33
2023-03-15T08:23:02.054Z,7.37
2023-03-15T08:25:29.731Z,3.73
2023-03-15T08:27:56.554Z,6.60
2023-03-15T08:30:24.075Z,9.67
2023-03-15T08:32:52.595Z,4.13
2023-03-15T08:35:21.506Z,5.80
2023-03-15T08:37:48.479Z,4.47
2023-03-15T08:40:26.172Z,6.40
2023-03-15T08:42:53.625Z,2.03
2023-03-15T08:45:20.770Z,5.93
2023-03-15T08:47:47.522Z,10.40
2023-03-15T08:50:16.502Z,5.50
2023-03-15T08:52:43.959Z,6.57
2023-03-15T08:55:14.341Z,7.90
2023-03-15T08:57:41.785Z,5.93
2023-03-15T09:00:09.526Z,4.60
2023-03-15T09:02:37.326Z,3.03
2023-03-15T09:05:07.001Z,7.50
2023-03-15T09:07:34.289Z,4.67
2023-03-15T09:10:02.920Z,2.33
2023-03-15T09:12:30.854Z,5.83
2023-03-15T09:14:57.620Z,4.47
2023-03-15T09:17:24.392Z,7.43
2023-03-15T09:19:52.419Z,6.47
2023-03-15T09:22:34.891Z,4.97
2023-03-15T09:25:05.577Z,5.80
2023-03-15T09:27:32.720Z,6.53
2023-03-15T09:29:59.656Z,5.07
2023-03-15T09:32:26.859Z,6.93
2023-03-15T09:34:53.711Z,7.50
2023-03-15T09:37:21.894Z,10.00
2023-03-15T09:39:48.841Z,4.57
2023-03-15T09:42:46.269Z,4.77
2023-03-15T09:45:35.593Z,6.20
2023-03-15T09:48:29.495Z,8.10
2023-03-15T09:51:38.586Z,4.93
2023-03-15T09:54:13.780Z,3.87
2023-03-15T09:56:48.930Z,6.40
2023-03-15T09:59:17.655Z,4.53
2023-03-15T10:01:45.441Z,5.10
2023-03-15T10:04:31.494Z,6.83
2023-03-15T10:07:00.578Z,3.23
2023-03-15T10:09:33.044Z,5.60
2023-03-15T10:12:09.813Z,5.00
2023-03-15T10:14:58.242Z,6.20
2023-03-15T10:17:43.862Z,3.20
2023-03-15T10:20:18.852Z,2.83
2023-03-15T10:23:01.008Z,7.53
2023-03-15T10:25:29.710Z,4.97
2023-03-15T10:28:01.246Z,4.43
2023-03-15T10:30:31.201Z,6.23
2023-03-15T10:33:05.742Z,5.73
2023-03-15T10:35:32.937Z,5.50
2023-03-15T10:37:59.783Z,3.00
2023-03-15T10:40:46.200Z,3.63
2023-03-15T10:43:18.109Z,6.87
2023-03-15T10:45:58.980Z,5.63
2023-03-15T10:48:27.085Z,7.37
2023-03-15T10:50:55.134Z,6.77
2023-03-15T10:53:22.424Z,7.13
2023-03-15T10:55:49.442Z,4.20
2023-03-15T10:58:28.271Z,3.30
2023-03-15T11:01:07.912Z,7.43
2023-03-15T11:03:38.354Z,5.13
2023-03-15T11:06:21.008Z,6.87
2023-03-15T11:08:47.768Z,6.53
2023-03-15T11:11:14.492Z,9.27
2023-03-15T11:13:42.408Z,7.50
2023-03-15T11:16:15.063Z,8.13
2023-03-15T11:18:47.684Z,8.43
2023-03-15T11:21:17.471Z,5.83
2023-03-15T11:23:48.032Z,3.30
2023-03-15T11:26:33.017Z,4.57
2023-03-15T11:29:08.053Z,3.30
2023-03-15T11:31:36.298Z,2.70
2023-03-15T11:34:06.227Z,3.50
2023-03-15T11:36:36.914Z,2.03
2023-03-15T11:39:06.817Z,7.00
2023-03-15T11:41:41.051Z,3.67
2023-03-15T11:44:29.760Z,4.30
2023-03-15T11:46:59.572Z,4.03
2023-03-15T11:49:51.298Z,4.33
2023-03-15T11:52:21.526Z,3.80
2023-03-15T11:54:48.538Z,6.73
2023-03-15T11:57:46.356Z,4.97
2023-03-15T12:00:26.738Z,4.07
2023-03-15T12:02:59.333Z,5.03
2023-03-15T12:05:44.661Z,2.77
2023-03-15T12:08:51.493Z,3.67
2023-03-15T12:11:24.525Z,5.97
2023-03-15T12:14:00.302Z,5.93
2023-03-15T12:16:29.877Z,5.23
2023-03-15T12:19:02.886Z,5.43
2023-03-15T12:21:35.198Z,7.50
2023-03-15T12:24:08.733Z,2.97
2023-03-15T12:26:45.459Z,9.37
2023-03-15T12:29:18.330Z,4.63
2023-03-15T12:31:52.437Z,5.27
2023-03-15T12:34:50.849Z,4.53
2023-03-15T12:37:47.087Z,3.40
2023-03-15T12:40:16.819Z,2.97
2023-03-15T12:42:43.487Z,4.90
2023-03-15T12:45:16.554Z,5.83
2023-03-15T12:47:52.542Z,5.33
2023-03-15T12:50:37.897Z,6.30
2023-03-15T12:53:28.309Z,2.23
2023-03-15T12:56:07.813Z,3.80
2023-03-15T12:58:37.241Z,3.77
2023-03-15T13:01:07.465Z,4.00
2023-03-15T13:03:36.179Z,8.17
2023-03-15T13:06:15.228Z,5.10
2023-03-15T13:09:19.094Z,4.00
2023-03-15T13:12:07.156Z,3.57
2023-03-15T13:14:45.837Z,3.83
2023-03-15T13:17:40.086Z,3.90
2023-03-15T13:20:24.933Z,2.10
2023-03-15T13:23:06.749Z,3.07
2023-03-15T13:26:03.218Z,1.33
2023-03-15T13:28:37.395Z,2.83
2023-03-15T13:31:17.468Z,1.53
2023-03-15T13:33:57.162Z,2.30
2023-03-15T13:36:46.326Z,4.10
2023-03-15T13:39:25.805Z,2.73
2023-03-15T13:42:03.107Z,3.30
2023-03-15T13:44:31.396Z,2.63
2023-03-15T13:46:59.107Z,20.33
2023-03-15T13:49:31.922Z,6.17
2023-03-15T13:52:00.603Z,2.20
2023-03-15T13:54:30.564Z,1.37
2023-03-15T13:57:07.466Z,2.57
2023-03-15T13:59:49.672Z,3.20
2023-03-15T14:02:51.855Z,1.70
2023-03-15T14:05:27.218Z,3.53
2023-03-15T14:08:04.473Z,2.30
2023-03-15T14:10:36.954Z,4.47
2023-03-15T14:13:46.913Z,4.03
2023-03-15T14:17:03.752Z,1.90
2023-03-15T14:19:35.240Z,1.37
2023-03-15T14:22:14.006Z,3.53
2023-03-15T14:24:43.293Z,5.10
2023-03-15T14:27:17.476Z,3.70
2023-03-15T14:29:54.361Z,3.30
2023-03-15T14:32:29.612Z,1.73
2023-03-15T14:35:02.109Z,2.63
2023-03-15T14:37:43.292Z,1.77
2023-03-15T14:40:21.040Z,2.43
2023-03-15T14:42:49.410Z,1.43
2023-03-15T14:45:18.005Z,1.73
2023-03-15T14:47:56.690Z,3.03
2023-03-15T14:50:30.843Z,3.47
2023-03-15T14:52:58.906Z,2.27
2023-03-15T14:55:30.959Z,1.50
2023-03-15T14:57:57.775Z,3.97
2023-03-15T15:00:24.904Z,5.73
2023-03-15T15:02:54.186Z,1.90
2023-03-15T15:05:34.480Z,4.30
2023-03-15T15:08:13.177Z,2.23
2023-03-15T15:10:42.128Z,2.40
2023-03-15T15:13:20.163Z,2.00
2023-03-15T15:15:55.234Z,3.83
2023-03-15T15:18:25.440Z,3.53
2023-03-15T15:20:55.835Z,3.17
2023-03-15T15:23:29.439Z,1.67
2023-03-15T15:25:58.828Z,2.37
2023-03-15T15:28:36.483Z,1.57
2023-03-15T15:31:07.265Z,0.83
2023-03-15T15:33:34.424Z,1.60
2023-03-15T15:36:01.791Z,1.27
2023-03-15T15:38:38.093Z,2.27
2023-03-15T15:41:05.611Z,1.93
2023-03-15T15:43:33.672Z,2.70
2023-03-15T15:46:01.748Z,4.87
2023-03-15T15:48:28.594Z,3.13
2023-03-15T15:50:55.663Z,3.53
2023-03-15T15:53:22.862Z,2.33
2023-03-15T15:55:50.111Z,2.77
2023-03-15T15:58:17.583Z,4.47
2023-03-15T16:00:44.462Z,4.70
2023-03-15T16:03:17.490Z,2.47
2023-03-15T16:05:44.459Z,2.87
2023-03-15T16:08:23.642Z,3.07
2023-03-15T16:10:50.506Z,3.63
2023-03-15T16:13:17.941Z,2.53
2023-03-15T16:15:44.789Z,1.20
2023-03-15T16:18:12.874Z,3.80
2023-03-15T16:20:40.963Z,2.73
2023-03-15T16:23:15.270Z,2.40
2023-03-15T16:25:51.012Z,2.67
2023-03-15T16:28:18.225Z,3.40
2023-03-15T16:30:47.038Z,2.97
2023-03-15T16:33:21.528Z,1.33
2023-03-15T16:35:50.043Z,2.80
2023-03-15T16:38:24.112Z,1.40
2023-03-15T16:40:52.887Z,2.13
2023-03-15T16:43:20.719Z,2.10
2023-03-15T16:45:47.726Z,2.23
2023-03-15T16:48:14.716Z,2.27
2023-03-15T16:50:42.402Z,2.30
2023-03-15T16:53:12.328Z,2.67
2023-03-15T16:55:39.646Z,2.57
2023-03-15T16:58:17.060Z,2.80
2023-03-15T17:00:46.764Z,1.53
2023-03-15T17:03:14.457Z,1.67
2023-03-15T17:05:44.263Z,2.10
2023-03-15T17:08:15.177Z,2.37
2023-03-15T17:10:42.603Z,2.63
2023-03-15T17:13:12.750Z,4.37
2023-03-15T17:15:39.727Z,4.77
2023-03-15T17:18:28.482Z,4.03
2023-03-15T17:20:55.238Z,2.47
2023-03-15T17:23:22.089Z,1.57
2023-03-15T17:25:49.318Z,1.90
2023-03-15T17:28:16.231Z,1.57
2023-03-15T17:30:43.060Z,2.40
2023-03-15T17:33:09.970Z,2.80
2023-03-15T17:35:53.895Z,7.07
2023-03-15T17:38:32.209Z,9.43
2023-03-15T17:40:59.489Z,9.90
2023-03-15T17:43:26.690Z,17.40
2023-03-15T17:45:53.481Z,10.73
2023-03-15T17:48:20.979Z,12.00
2023-03-15T17:50:47.768Z,10.13
2023-03-15T17:53:19.578Z,8.57
2023-03-15T17:55:47.867Z,10.67
2023-03-15T17:58:20.757Z,8.07
2023-03-15T18:00:49.430Z,6.40
2023-03-15T18:03:17.360Z,7.37
2023-03-15T18:05:44.992Z,3.77
2023-03-15T18:08:18.297Z,4.03
2023-03-15T18:10:46.665Z,4.90
2023-03-15T18:13:17.632Z,3.13
2023-03-15T18:15:45.965Z,4.97
2023-03-15T18:18:12.949Z,3.77
2023-03-15T18:20:41.006Z,4.60
2023-03-15T18:23:09.942Z,3.90
2023-03-15T18:25:36.725Z,3.73
2023-03-15T18:28:03.731Z,4.43
2023-03-15T18:30:31.736Z,4.10
2023-03-15T18:32:59.554Z,4.30
2023-03-15T18:35:31.011Z,4.70
2023-03-15T18:37:58.499Z,4.50
2023-03-15T18:40:28.929Z,4.67
2023-03-15T18:42:57.118Z,6.20
2023-03-15T18:45:30.796Z,6.73
2023-03-15T18:47:59.776Z,7.13
2023-03-15T18:50:27.954Z,7.37
2023-03-15T18:52:55.141Z,7.13
2023-03-15T18:55:23.825Z,3.97
2023-03-15T18:57:52.334Z,3.87
2023-03-15T19:00:26.670Z,3.93
2023-03-15T19:02:56.213Z,5.50
2023-03-15T19:05:23.413Z,7.63
2023-03-15T19:07:51.911Z,9.17
2023-03-15T19:10:21.031Z,9.13
2023-03-15T19:12:49.043Z,10.80
2023-03-15T19:15:17.424Z,10.23
2023-03-15T19:17:49.085Z,8.13
2023-03-15T19:20:18.719Z,10.07
2023-03-15T19:22:45.474Z,8.13
2023-03-15T19:25:13.936Z,8.87
2023-03-15T19:27:42.140Z,11.03
2023-03-15T19:30:11.990Z,10.33
2023-03-15T19:32:40.407Z,11.50
2023-03-15T19:35:07.682Z,9.37
2023-03-15T19:37:34.554Z,9.37
2023-03-15T19:40:01.687Z,7.60
2023-03-15T19:42:28.495Z,9.00
2023-03-15T19:44:55.244Z,7.13
2023-03-15T19:47:22.064Z,5.37
2023-03-15T19:49:48.880Z,5.20
2023-03-15T19:52:16.040Z,6.47
2023-03-15T19:54:42.868Z,5.13
2023-03-15T19:57:09.738Z,6.13
2023-03-15T19:59:39.928Z,6.13
2023-03-15T20:02:13.829Z,7.60
2023-03-15T20:04:40.884Z,5.60
2023-03-15T20:07:10.987Z,5.37
2023-03-15T20:09:39.003Z,4.23
2023-03-15T20:12:11.790Z,5.57
2023-03-15T20:14:38.873Z,3.83
2023-03-15T20:17:05.813Z,5.07
2023-03-15T20:19:32.792Z,4.20
2023-03-15T20:21:59.520Z,7.53
2023-03-15T20:24:26.309Z,6.07
2023-03-15T20:26:53.571Z,5.27
2023-03-15T20:29:22.377Z,5.37
2023-03-15T20:31:49.802Z,4.43
2023-03-15T20:34:17.321Z,6.13
2023-03-15T20:36:44.108Z,6.00
2023-03-15T20:39:10.959Z,6.90
2023-03-15T20:41:39.057Z,8.20
2023-03-15T20:44:05.988Z,6.07
2023-03-15T20:46:33.457Z,8.20
2023-03-15T20:49:00.493Z,9.80
2023-03-15T20:51:27.383Z,8.07
2023-03-15T20:53:54.411Z,7.07
2023-03-15T20:56:21.878Z,6.97
2023-03-15T20:58:48.693Z,6.17
2023-03-15T21:01:16.882Z,6.57
2023-03-15T21:03:44.545Z,5.03
2023-03-15T21:06:11.772Z,5.30
2023-03-15T21:08:38.981Z,4.60
2023-03-15T21:11:06.523Z,5.83
2023-03-15T21:13:34.214Z,5.30
2023-03-15T21:16:04.794Z,4.97
2023-03-15T21:18:33.052Z,5.90
2023-03-15T21:21:05.516Z,6.07
2023-03-15T21:23:33.775Z,6.77
2023-03-15T21:26:03.382Z,6.23
2023-03-15T21:28:30.705Z,5.83
2023-03-15T21:30:57.949Z,5.73
2023-03-15T21:33:27.412Z,6.03
2023-03-15T21:35:55.711Z,6.37
2023-03-15T21:38:23.097Z,6.33
2023-03-15T21:40:52.555Z,5.37
2023-03-15T21:43:19.746Z,6.33
2023-03-15T21:45:46.673Z,6.60
2023-03-15T21:48:13.488Z,5.97
2023-03-15T21:50:41.433Z,7.27
2023-03-15T21:53:08.177Z,6.30
2023-03-15T21:55:35.025Z,8.03
2023-03-15T21:58:02.596Z,9.83
2023-03-15T22:00:30.457Z,8.37
2023-03-15T22:02:57.210Z,12.20
2023-03-15T22:05:24.823Z,8.10
2023-03-15T22:07:51.662Z,7.57
2023-03-15T22:10:19.772Z,7.30
2023-03-15T22:12:46.577Z,7.00
2023-03-15T22:15:13.843Z,9.50
2023-03-15T22:17:40.584Z,9.13
2023-03-15T22:20:09.614Z,10.17
2023-03-15T22:22:36.598Z,7.83
2023-03-15T22:25:03.345Z,7.43
2023-03-15T22:27:30.135Z,13.03
2023-03-15T22:29:56.910Z,12.53
2023-03-15T22:32:23.686Z,14.03
2023-03-15T22:34:50.463Z,10.27
2023-03-15T22:37:17.158Z,10.93
2023-03-15T22:39:43.885Z,9.23
2023-03-15T22:42:10.660Z,9.53
2023-03-15T22:44:37.440Z,8.97
2023-03-15T22:47:04.255Z,9.53
2023-03-15T22:49:31.009Z,12.90
2023-03-15T22:51:57.742Z,9.17
2023-03-15T22:54:24.711Z,9.37
2023-03-15T22:56:51.690Z,8.57
2023-03-15T22:59:18.506Z,7.93
2023-03-15T23:01:45.344Z,10.47
2023-03-15T23:04:12.119Z,9.57
2023-03-15T23:06:38.836Z,7.93
2023-03-15T23:09:06.653Z,9.27
2023-03-15T23:11:33.602Z,12.07
2023-03-15T23:14:00.374Z,10.30
2023-03-15T23:16:27.283Z,10.17
2023-03-15T23:18:54.275Z,9.80
2023-03-15T23:21:21.251Z,10.07
2023-03-15T23:23:48.017Z,10.50
2023-03-15T23:26:16.715Z,8.73
2023-03-15T23:28:43.809Z,14.70
2023-03-15T23:31:10.603Z,12.57
2023-03-15T23:33:37.605Z,11.87
2023-03-15T23:36:06.871Z,12.43
2023-03-15T23:38:34.660Z,13.47
2023-03-15T23:41:02.052Z,14.77
2023-03-15T23:43:28.847Z,16.63
2023-03-15T23:45:59.994Z,13.10
2023-03-15T23:48:27.723Z,12.10
2023-03-15T23:50:58.248Z,12.60
2023-03-15T23:53:25.786Z,11.00
2023-03-15T23:55:52.699Z,13.03
2023-03-15T23:58:19.997Z,11.83
